sensor_id;sensor_type;location;lat;lon;timestamp;temperature;humidity
1329;DHT22;658;48.820;9.354;2024-01-16T00:03:17;22.20;30.10
1329;DHT22;658;48.820;9.354;2024-01-16T00:07:18;22.20;30.10
1329;DHT22;658;48.820;9.354;2024-01-16T00:11:18;22.20;30.10
1329;DHT22;658;48.820;9.354;2024-01-16T00:15:19;22.20;30.10
1329;DHT22;658;48.820;9.354;2024-01-16T00:19:19;22.20;30.10
1329;DHT22;658;48.820;9.354;2024-01-16T00:23:22;22.20;30.10
1329;DHT22;658;48.820;9.354;2024-01-16T00:27:25;22.10;30.10
1329;DHT22;658;48.820;9.354;2024-01-16T00:31:26;22.10;30.00
1329;DHT22;658;48.820;9.354;2024-01-16T00:35:26;22.20;30.10
1329;DHT22;658;48.820;9.354;2024-01-16T00:39:27;22.20;30.00
1329;DHT22;658;48.820;9.354;2024-01-16T00:43:27;22.20;30.00
1329;DHT22;658;48.820;9.354;2024-01-16T00:47:30;22.20;30.00
1329;DHT22;658;48.820;9.354;2024-01-16T00:51:31;22.20;30.10
1329;DHT22;658;48.820;9.354;2024-01-16T00:55:31;22.10;30.00
1329;DHT22;658;48.820;9.354;2024-01-16T00:59:32;22.20;30.10
1329;DHT22;658;48.820;9.354;2024-01-16T01:03:32;22.20;30.00
1329;DHT22;658;48.820;9.354;2024-01-16T01:07:33;22.20;30.00
1329;DHT22;658;48.820;9.354;2024-01-16T01:11:36;22.20;30.00
1329;DHT22;658;48.820;9.354;2024-01-16T01:15:36;22.20;30.00
1329;DHT22;658;48.820;9.354;2024-01-16T01:19:37;22.20;30.00
1329;DHT22;658;48.820;9.354;2024-01-16T01:23:37;22.20;30.00
1329;DHT22;658;48.820;9.354;2024-01-16T01:27:39;22.20;30.00
1329;DHT22;658;48.820;9.354;2024-01-16T01:31:41;22.20;30.00
1329;DHT22;658;48.820;9.354;2024-01-16T01:35:45;22.30;30.10
1329;DHT22;658;48.820;9.354;2024-01-16T01:39:48;22.30;30.10
1329;DHT22;658;48.820;9.354;2024-01-16T01:43:48;22.30;30.00
1329;DHT22;658;48.820;9.354;2024-01-16T01:47:49;22.30;30.00
1329;DHT22;658;48.820;9.354;2024-01-16T01:51:50;22.30;30.00
1329;DHT22;658;48.820;9.354;2024-01-16T01:55:51;22.30;30.00
1329;DHT22;658;48.820;9.354;2024-01-16T01:59:53;22.30;30.00
1329;DHT22;658;48.820;9.354;2024-01-16T02:03:55;22.30;30.50
1329;DHT22;658;48.820;9.354;2024-01-16T02:07:55;22.30;30.00
1329;DHT22;658;48.820;9.354;2024-01-16T02:11:56;22.30;30.00
1329;DHT22;658;48.820;9.354;2024-01-16T02:15:57;22.30;30.00
1329;DHT22;658;48.820;9.354;2024-01-16T02:19:57;22.30;30.00
1329;DHT22;658;48.820;9.354;2024-01-16T02:23:58;22.30;30.00
1329;DHT22;658;48.820;9.354;2024-01-16T02:28:01;22.30;30.00
1329;DHT22;658;48.820;9.354;2024-01-16T02:32:04;22.40;30.00
1329;DHT22;658;48.820;9.354;2024-01-16T02:36:05;22.40;30.00
1329;DHT22;658;48.820;9.354;2024-01-16T02:40:08;22.40;29.90
1329;DHT22;658;48.820;9.354;2024-01-16T02:44:09;22.40;30.00
1329;DHT22;658;48.820;9.354;2024-01-16T02:48:10;22.40;29.90
1329;DHT22;658;48.820;9.354;2024-01-16T02:52:11;22.40;29.90
1329;DHT22;658;48.820;9.354;2024-01-16T02:56:12;22.40;29.90
1329;DHT22;658;48.820;9.354;2024-01-16T03:00:13;22.40;29.90
1329;DHT22;658;48.820;9.354;2024-01-16T03:04:14;22.40;29.90
1329;DHT22;658;48.820;9.354;2024-01-16T03:08:14;22.40;29.90
1329;DHT22;658;48.820;9.354;2024-01-16T03:12:15;22.40;29.90
1329;DHT22;658;48.820;9.354;2024-01-16T03:16:16;22.40;29.90
1329;DHT22;658;48.820;9.354;2024-01-16T03:20:17;22.40;29.80
1329;DHT22;658;48.820;9.354;2024-01-16T03:24:18;22.40;29.80
1329;DHT22;658;48.820;9.354;2024-01-16T03:28:19;22.40;29.80
1329;DHT22;658;48.820;9.354;2024-01-16T03:32:19;22.40;29.80
1329;DHT22;658;48.820;9.354;2024-01-16T03:36:22;22.40;30.30
1329;DHT22;658;48.820;9.354;2024-01-16T03:40:23;22.40;29.80
1329;DHT22;658;48.820;9.354;2024-01-16T03:44:24;22.40;29.80
1329;DHT22;658;48.820;9.354;2024-01-16T03:48:27;22.40;29.80
1329;DHT22;658;48.820;9.354;2024-01-16T03:52:27;22.40;29.80
1329;DHT22;658;48.820;9.354;2024-01-16T03:56:28;22.40;29.80
1329;DHT22;658;48.820;9.354;2024-01-16T04:00:29;22.40;29.80
1329;DHT22;658;48.820;9.354;2024-01-16T04:04:29;22.40;29.80
1329;DHT22;658;48.820;9.354;2024-01-16T04:08:30;22.30;29.80
1329;DHT22;658;48.820;9.354;2024-01-16T04:12:31;22.40;29.80
1329;DHT22;658;48.820;9.354;2024-01-16T04:16:31;22.40;29.80
1329;DHT22;658;48.820;9.354;2024-01-16T04:20:34;22.40;29.80
1329;DHT22;658;48.820;9.354;2024-01-16T04:24:35;22.40;29.70
1329;DHT22;658;48.820;9.354;2024-01-16T04:28:36;22.30;29.70
1329;DHT22;658;48.820;9.354;2024-01-16T04:32:39;22.40;29.80
1329;DHT22;658;48.820;9.354;2024-01-16T04:36:40;22.30;29.70
1329;DHT22;658;48.820;9.354;2024-01-16T04:40:40;22.30;29.70
1329;DHT22;658;48.820;9.354;2024-01-16T04:44:41;22.30;29.70
1329;DHT22;658;48.820;9.354;2024-01-16T04:48:42;22.30;29.70
1329;DHT22;658;48.820;9.354;2024-01-16T04:52:45;22.30;29.70
1329;DHT22;658;48.820;9.354;2024-01-16T04:56:45;22.30;29.70
1329;DHT22;658;48.820;9.354;2024-01-16T05:00:46;22.30;29.70
1329;DHT22;658;48.820;9.354;2024-01-16T05:04:46;22.30;29.60
1329;DHT22;658;48.820;9.354;2024-01-16T05:08:49;22.30;29.60
1329;DHT22;658;48.820;9.354;2024-01-16T05:12:50;22.30;29.90
1329;DHT22;658;48.820;9.354;2024-01-16T05:16:51;22.30;29.70
1329;DHT22;658;48.820;9.354;2024-01-16T05:20:52;22.30;29.60
1329;DHT22;658;48.820;9.354;2024-01-16T05:24:54;22.30;29.70
1329;DHT22;658;48.820;9.354;2024-01-16T05:28:54;22.30;29.70
1329;DHT22;658;48.820;9.354;2024-01-16T05:32:55;22.30;29.60
1329;DHT22;658;48.820;9.354;2024-01-16T05:36:56;22.20;29.60
1329;DHT22;658;48.820;9.354;2024-01-16T05:40:59;22.20;29.50
1329;DHT22;658;48.820;9.354;2024-01-16T05:44:59;22.20;29.60
1329;DHT22;658;48.820;9.354;2024-01-16T05:49:00;22.20;29.60
1329;DHT22;658;48.820;9.354;2024-01-16T05:53:00;22.20;29.80
1329;DHT22;658;48.820;9.354;2024-01-16T05:57:01;22.20;30.30
1329;DHT22;658;48.820;9.354;2024-01-16T06:01:03;22.30;30.20
1329;DHT22;658;48.820;9.354;2024-01-16T06:05:03;22.30;30.70
1329;DHT22;658;48.820;9.354;2024-01-16T06:09:04;22.30;30.00
1329;DHT22;658;48.820;9.354;2024-01-16T06:13:06;22.30;30.00
1329;DHT22;658;48.820;9.354;2024-01-16T06:17:06;22.20;29.90
1329;DHT22;658;48.820;9.354;2024-01-16T06:21:07;22.20;29.90
1329;DHT22;658;48.820;9.354;2024-01-16T06:25:12;22.20;29.90
1329;DHT22;658;48.820;9.354;2024-01-16T06:29:13;22.20;29.80
1329;DHT22;658;48.820;9.354;2024-01-16T06:33:15;22.30;29.90
1329;DHT22;658;48.820;9.354;2024-01-16T06:37:16;22.30;29.90
1329;DHT22;658;48.820;9.354;2024-01-16T06:41:16;22.30;29.70
1329;DHT22;658;48.820;9.354;2024-01-16T06:45:17;22.20;30.50
1329;DHT22;658;48.820;9.354;2024-01-16T06:49:19;22.30;31.60
1329;DHT22;658;48.820;9.354;2024-01-16T06:53:20;22.40;31.80
1329;DHT22;658;48.820;9.354;2024-01-16T06:57:20;22.40;31.80
1329;DHT22;658;48.820;9.354;2024-01-16T07:01:22;22.50;32.10
1329;DHT22;658;48.820;9.354;2024-01-16T07:05:23;22.60;32.30
1329;DHT22;658;48.820;9.354;2024-01-16T07:09:26;22.60;32.30
1329;DHT22;658;48.820;9.354;2024-01-16T07:13:27;22.60;32.10
1329;DHT22;658;48.820;9.354;2024-01-16T07:17:28;22.60;32.20
1329;DHT22;658;48.820;9.354;2024-01-16T07:21:28;22.60;32.40
1329;DHT22;658;48.820;9.354;2024-01-16T07:25:29;22.60;32.40
1329;DHT22;658;48.820;9.354;2024-01-16T07:29:29;22.60;32.00
1329;DHT22;658;48.820;9.354;2024-01-16T07:33:30;22.60;32.40
1329;DHT22;658;48.820;9.354;2024-01-16T07:37:31;22.60;32.10
1329;DHT22;658;48.820;9.354;2024-01-16T07:41:31;22.70;32.60
1329;DHT22;658;48.820;9.354;2024-01-16T07:45:32;22.70;32.30
1329;DHT22;658;48.820;9.354;2024-01-16T07:49:33;22.70;32.30
1329;DHT22;658;48.820;9.354;2024-01-16T07:53:33;22.70;32.50
1329;DHT22;658;48.820;9.354;2024-01-16T07:57:36;22.70;32.50
1329;DHT22;658;48.820;9.354;2024-01-16T08:01:36;22.70;32.40
1329;DHT22;658;48.820;9.354;2024-01-16T08:05:40;22.70;32.80
1329;DHT22;658;48.820;9.354;2024-01-16T08:09:44;22.70;32.60
1329;DHT22;658;48.820;9.354;2024-01-16T08:13:44;22.70;32.30
1329;DHT22;658;48.820;9.354;2024-01-16T08:17:45;22.70;32.30
1329;DHT22;658;48.820;9.354;2024-01-16T08:21:45;22.70;32.40
1329;DHT22;658;48.820;9.354;2024-01-16T08:25:48;22.80;32.00
1329;DHT22;658;48.820;9.354;2024-01-16T08:29:49;22.80;32.10
1329;DHT22;658;48.820;9.354;2024-01-16T08:33:50;22.80;31.80
1329;DHT22;658;48.820;9.354;2024-01-16T08:37:51;22.90;32.00
1329;DHT22;658;48.820;9.354;2024-01-16T08:41:51;22.90;31.60
1329;DHT22;658;48.820;9.354;2024-01-16T08:45:52;22.90;31.80
1329;DHT22;658;48.820;9.354;2024-01-16T08:49:52;22.90;31.70
1329;DHT22;658;48.820;9.354;2024-01-16T08:53:53;22.90;31.70
1329;DHT22;658;48.820;9.354;2024-01-16T08:57:53;22.90;31.60
1329;DHT22;658;48.820;9.354;2024-01-16T09:01:56;22.90;31.60
1329;DHT22;658;48.820;9.354;2024-01-16T09:05:57;22.90;31.60
1329;DHT22;658;48.820;9.354;2024-01-16T09:09:58;23.00;31.30
1329;DHT22;658;48.820;9.354;2024-01-16T09:13:58;23.00;31.30
1329;DHT22;658;48.820;9.354;2024-01-16T09:17:59;23.00;31.20
1329;DHT22;658;48.820;9.354;2024-01-16T09:22:00;23.00;31.00
1329;DHT22;658;48.820;9.354;2024-01-16T09:26:00;23.00;31.20
1329;DHT22;658;48.820;9.354;2024-01-16T09:30:01;23.10;31.00
1329;DHT22;658;48.820;9.354;2024-01-16T09:34:03;23.10;31.10
1329;DHT22;658;48.820;9.354;2024-01-16T09:38:04;23.10;30.70
1329;DHT22;658;48.820;9.354;2024-01-16T09:42:07;23.20;31.00
1329;DHT22;658;48.820;9.354;2024-01-16T09:46:08;23.20;30.90
1329;DHT22;658;48.820;9.354;2024-01-16T09:50:11;23.20;31.00
1329;DHT22;658;48.820;9.354;2024-01-16T09:54:12;23.10;30.80
1329;DHT22;658;48.820;9.354;2024-01-16T09:58:13;23.20;31.10
1329;DHT22;658;48.820;9.354;2024-01-16T10:02:18;23.20;30.90
1329;DHT22;658;48.820;9.354;2024-01-16T10:06:20;23.20;31.30
1329;DHT22;658;48.820;9.354;2024-01-16T10:10:21;23.30;31.00
1329;DHT22;658;48.820;9.354;2024-01-16T10:14:23;23.30;31.20
1329;DHT22;658;48.820;9.354;2024-01-16T10:18:26;23.30;31.20
1329;DHT22;658;48.820;9.354;2024-01-16T10:22:27;23.30;31.00
1329;DHT22;658;48.820;9.354;2024-01-16T10:26:27;23.30;30.90
1329;DHT22;658;48.820;9.354;2024-01-16T10:30:28;23.40;31.00
1329;DHT22;658;48.820;9.354;2024-01-16T10:34:29;23.40;30.90
1329;DHT22;658;48.820;9.354;2024-01-16T10:38:30;23.50;31.00
1329;DHT22;658;48.820;9.354;2024-01-16T10:42:31;23.50;30.80
1329;DHT22;658;48.820;9.354;2024-01-16T10:46:32;23.50;30.70
1329;DHT22;658;48.820;9.354;2024-01-16T10:50:35;23.50;30.80
1329;DHT22;658;48.820;9.354;2024-01-16T10:54:37;23.50;30.90
1329;DHT22;658;48.820;9.354;2024-01-16T10:58:42;23.60;30.60
1329;DHT22;658;48.820;9.354;2024-01-16T11:02:47;23.60;30.60
1329;DHT22;658;48.820;9.354;2024-01-16T11:06:51;23.60;30.30
1329;DHT22;658;48.820;9.354;2024-01-16T11:10:57;23.70;30.10
1329;DHT22;658;48.820;9.354;2024-01-16T11:15:00;23.80;30.00
1329;DHT22;658;48.820;9.354;2024-01-16T11:19:04;23.80;29.90
1329;DHT22;658;48.820;9.354;2024-01-16T11:23:10;24.00;29.80
1329;DHT22;658;48.820;9.354;2024-01-16T11:27:22;24.10;29.60
1329;DHT22;658;48.820;9.354;2024-01-16T11:31:32;24.30;29.50
1329;DHT22;658;48.820;9.354;2024-01-16T11:35:36;24.40;29.20
1329;DHT22;658;48.820;9.354;2024-01-16T11:39:37;24.50;29.10
1329;DHT22;658;48.820;9.354;2024-01-16T11:43:38;24.70;29.00
1329;DHT22;658;48.820;9.354;2024-01-16T11:47:40;24.80;29.00
1329;DHT22;658;48.820;9.354;2024-01-16T11:51:41;25.00;28.80
1329;DHT22;658;48.820;9.354;2024-01-16T12:00:03;25.40;28.40
1329;DHT22;658;48.820;9.354;2024-01-16T12:04:14;25.50;28.30
1329;DHT22;658;48.820;9.354;2024-01-16T12:08:21;25.70;28.00
1329;DHT22;658;48.820;9.354;2024-01-16T12:12:22;25.90;27.80
1329;DHT22;658;48.820;9.354;2024-01-16T12:16:25;26.00;27.60
1329;DHT22;658;48.820;9.354;2024-01-16T12:20:28;26.10;27.60
1329;DHT22;658;48.820;9.354;2024-01-16T12:24:28;26.20;27.40
1329;DHT22;658;48.820;9.354;2024-01-16T12:28:29;26.30;27.30
1329;DHT22;658;48.820;9.354;2024-01-16T12:32:30;26.30;27.30
1329;DHT22;658;48.820;9.354;2024-01-16T12:36:31;26.20;27.20
1329;DHT22;658;48.820;9.354;2024-01-16T12:40:39;26.20;27.40
1329;DHT22;658;48.820;9.354;2024-01-16T12:44:40;26.10;27.50
1329;DHT22;658;48.820;9.354;2024-01-16T12:48:43;26.00;27.50
1329;DHT22;658;48.820;9.354;2024-01-16T12:52:44;25.90;27.60
1329;DHT22;658;48.820;9.354;2024-01-16T12:56:47;25.90;27.70
1329;DHT22;658;48.820;9.354;2024-01-16T13:00:49;25.80;27.80
1329;DHT22;658;48.820;9.354;2024-01-16T13:05:00;25.80;27.60
1329;DHT22;658;48.820;9.354;2024-01-16T13:09:12;25.90;27.70
1329;DHT22;658;48.820;9.354;2024-01-16T13:13:18;25.90;27.40
1329;DHT22;658;48.820;9.354;2024-01-16T13:17:20;26.00;27.40
1329;DHT22;658;48.820;9.354;2024-01-16T13:21:21;26.00;27.40
1329;DHT22;658;48.820;9.354;2024-01-16T13:25:22;26.10;27.30
1329;DHT22;658;48.820;9.354;2024-01-16T13:29:26;26.20;27.30
1329;DHT22;658;48.820;9.354;2024-01-16T13:33:27;26.30;27.10
1329;DHT22;658;48.820;9.354;2024-01-16T13:37:27;26.30;27.40
1329;DHT22;658;48.820;9.354;2024-01-16T13:41:30;26.30;27.40
1329;DHT22;658;48.820;9.354;2024-01-16T13:45:31;26.40;27.10
1329;DHT22;658;48.820;9.354;2024-01-16T13:49:34;26.50;27.20
1329;DHT22;658;48.820;9.354;2024-01-16T13:53:34;26.60;26.90
1329;DHT22;658;48.820;9.354;2024-01-16T13:57:35;26.70;26.80
1329;DHT22;658;48.820;9.354;2024-01-16T14:01:36;26.90;26.80
1329;DHT22;658;48.820;9.354;2024-01-16T14:05:37;27.00;26.70
1329;DHT22;658;48.820;9.354;2024-01-16T14:09:41;27.10;26.60
1329;DHT22;658;48.820;9.354;2024-01-16T14:13:43;27.10;26.40
1329;DHT22;658;48.820;9.354;2024-01-16T14:17:45;27.10;26.40
1329;DHT22;658;48.820;9.354;2024-01-16T14:21:46;27.10;26.40
1329;DHT22;658;48.820;9.354;2024-01-16T14:25:48;27.10;26.30
1329;DHT22;658;48.820;9.354;2024-01-16T14:29:48;27.20;26.20
1329;DHT22;658;48.820;9.354;2024-01-16T14:33:51;27.20;26.20
1329;DHT22;658;48.820;9.354;2024-01-16T14:37:52;27.40;26.10
1329;DHT22;658;48.820;9.354;2024-01-16T14:41:55;27.40;26.00
1329;DHT22;658;48.820;9.354;2024-01-16T14:45:56;27.40;26.00
1329;DHT22;658;48.820;9.354;2024-01-16T14:49:58;27.50;26.00
1329;DHT22;658;48.820;9.354;2024-01-16T14:53:59;27.40;25.90
1329;DHT22;658;48.820;9.354;2024-01-16T14:58:02;27.40;26.20
1329;DHT22;658;48.820;9.354;2024-01-16T15:02:03;27.20;26.20
1329;DHT22;658;48.820;9.354;2024-01-16T15:06:12;27.10;26.40
1329;DHT22;658;48.820;9.354;2024-01-16T15:10:13;26.90;26.30
1329;DHT22;658;48.820;9.354;2024-01-16T15:14:17;26.80;26.50
1329;DHT22;658;48.820;9.354;2024-01-16T15:18:20;26.70;26.70
1329;DHT22;658;48.820;9.354;2024-01-16T15:22:20;26.40;26.70
1329;DHT22;658;48.820;9.354;2024-01-16T15:26:23;26.20;27.20
1329;DHT22;658;48.820;9.354;2024-01-16T15:30:25;25.90;27.20
1329;DHT22;658;48.820;9.354;2024-01-16T15:34:31;25.70;27.30
1329;DHT22;658;48.820;9.354;2024-01-16T15:38:32;25.60;27.40
1329;DHT22;658;48.820;9.354;2024-01-16T15:42:33;25.40;27.50
1329;DHT22;658;48.820;9.354;2024-01-16T15:46:59;25.30;27.60
1329;DHT22;658;48.820;9.354;2024-01-16T15:51:00;25.10;27.70
1329;DHT22;658;48.820;9.354;2024-01-16T15:55:01;25.00;27.70
1329;DHT22;658;48.820;9.354;2024-01-16T15:59:01;24.90;27.90
1329;DHT22;658;48.820;9.354;2024-01-16T16:03:02;24.80;28.00
1329;DHT22;658;48.820;9.354;2024-01-16T16:07:03;24.70;28.00
1329;DHT22;658;48.820;9.354;2024-01-16T16:11:04;24.60;28.00
1329;DHT22;658;48.820;9.354;2024-01-16T16:15:07;24.50;28.00
1329;DHT22;658;48.820;9.354;2024-01-16T16:19:08;24.40;27.90
1329;DHT22;658;48.820;9.354;2024-01-16T16:23:11;24.40;28.00
1329;DHT22;658;48.820;9.354;2024-01-16T16:27:26;24.30;28.00
1329;DHT22;658;48.820;9.354;2024-01-16T16:31:26;24.20;28.00
1329;DHT22;658;48.820;9.354;2024-01-16T16:35:27;24.10;28.00
1329;DHT22;658;48.820;9.354;2024-01-16T16:39:28;24.10;28.00
1329;DHT22;658;48.820;9.354;2024-01-16T16:43:30;24.00;27.90
1329;DHT22;658;48.820;9.354;2024-01-16T16:47:31;24.00;27.90
1329;DHT22;658;48.820;9.354;2024-01-16T16:51:36;23.90;28.00
1329;DHT22;658;48.820;9.354;2024-01-16T16:55:42;23.80;28.00
1329;DHT22;658;48.820;9.354;2024-01-16T16:59:42;23.80;28.00
1329;DHT22;658;48.820;9.354;2024-01-16T17:03:44;23.70;28.00
1329;DHT22;658;48.820;9.354;2024-01-16T17:07:46;23.60;28.00
1329;DHT22;658;48.820;9.354;2024-01-16T17:11:47;23.60;28.10
1329;DHT22;658;48.820;9.354;2024-01-16T17:15:47;23.60;28.10
1329;DHT22;658;48.820;9.354;2024-01-16T17:19:48;23.50;28.00
1329;DHT22;658;48.820;9.354;2024-01-16T17:23:49;23.50;28.20
1329;DHT22;658;48.820;9.354;2024-01-16T17:27:51;23.40;28.00
1329;DHT22;658;48.820;9.354;2024-01-16T17:31:52;23.40;28.10
1329;DHT22;658;48.820;9.354;2024-01-16T17:35:55;23.30;28.10
1329;DHT22;658;48.820;9.354;2024-01-16T17:40:00;23.30;28.10
1329;DHT22;658;48.820;9.354;2024-01-16T17:44:01;23.30;28.10
1329;DHT22;658;48.820;9.354;2024-01-16T17:48:01;23.20;28.10
1329;DHT22;658;48.820;9.354;2024-01-16T17:52:05;23.20;28.20
1329;DHT22;658;48.820;9.354;2024-01-16T17:56:09;23.20;28.10
1329;DHT22;658;48.820;9.354;2024-01-16T18:00:13;23.10;28.20
1329;DHT22;658;48.820;9.354;2024-01-16T18:04:13;23.10;28.20
1329;DHT22;658;48.820;9.354;2024-01-16T18:08:14;23.10;28.10
1329;DHT22;658;48.820;9.354;2024-01-16T18:12:15;23.00;28.10
1329;DHT22;658;48.820;9.354;2024-01-16T18:16:15;23.00;28.20
1329;DHT22;658;48.820;9.354;2024-01-16T18:20:18;23.00;28.20
1329;DHT22;658;48.820;9.354;2024-01-16T18:24:21;22.90;28.20
1329;DHT22;658;48.820;9.354;2024-01-16T18:28:21;22.90;28.30
1329;DHT22;658;48.820;9.354;2024-01-16T18:32:23;22.90;28.30
1329;DHT22;658;48.820;9.354;2024-01-16T18:36:23;22.80;28.30
1329;DHT22;658;48.820;9.354;2024-01-16T18:40:26;22.80;28.30
1329;DHT22;658;48.820;9.354;2024-01-16T18:44:27;22.80;28.50
1329;DHT22;658;48.820;9.354;2024-01-16T18:48:28;22.70;29.10
1329;DHT22;658;48.820;9.354;2024-01-16T18:52:29;22.60;29.40
1329;DHT22;658;48.820;9.354;2024-01-16T18:56:30;22.60;29.40
1329;DHT22;658;48.820;9.354;2024-01-16T19:00:31;22.60;29.40
1329;DHT22;658;48.820;9.354;2024-01-16T19:04:35;22.60;29.60
1329;DHT22;658;48.820;9.354;2024-01-16T19:08:37;22.60;30.00
1329;DHT22;658;48.820;9.354;2024-01-16T19:12:42;22.60;29.50
1329;DHT22;658;48.820;9.354;2024-01-16T19:16:44;22.60;29.50
1329;DHT22;658;48.820;9.354;2024-01-16T19:20:46;22.50;29.40
1329;DHT22;658;48.820;9.354;2024-01-16T19:24:47;22.50;29.30
1329;DHT22;658;48.820;9.354;2024-01-16T19:28:47;22.50;29.20
1329;DHT22;658;48.820;9.354;2024-01-16T19:32:48;22.50;29.20
1329;DHT22;658;48.820;9.354;2024-01-16T19:36:49;22.50;29.20
1329;DHT22;658;48.820;9.354;2024-01-16T19:40:50;22.50;29.20
1329;DHT22;658;48.820;9.354;2024-01-16T19:44:51;22.40;29.20
1329;DHT22;658;48.820;9.354;2024-01-16T19:48:52;22.40;29.20
1329;DHT22;658;48.820;9.354;2024-01-16T19:52:52;22.40;29.20
1329;DHT22;658;48.820;9.354;2024-01-16T19:56:57;22.40;29.20
1329;DHT22;658;48.820;9.354;2024-01-16T20:00:59;22.40;29.30
1329;DHT22;658;48.820;9.354;2024-01-16T20:05:03;22.40;29.50
1329;DHT22;658;48.820;9.354;2024-01-16T20:09:04;22.40;29.40
1329;DHT22;658;48.820;9.354;2024-01-16T20:13:06;22.40;29.40
1329;DHT22;658;48.820;9.354;2024-01-16T20:17:09;22.30;29.30
1329;DHT22;658;48.820;9.354;2024-01-16T20:21:11;22.30;29.30
1329;DHT22;658;48.820;9.354;2024-01-16T20:25:12;22.30;29.20
1329;DHT22;658;48.820;9.354;2024-01-16T20:29:19;22.30;29.20
1329;DHT22;658;48.820;9.354;2024-01-16T20:33:20;22.30;29.20
1329;DHT22;658;48.820;9.354;2024-01-16T20:37:21;22.30;29.20
1329;DHT22;658;48.820;9.354;2024-01-16T20:41:22;22.30;29.20
1329;DHT22;658;48.820;9.354;2024-01-16T20:45:22;22.20;29.10
1329;DHT22;658;48.820;9.354;2024-01-16T20:49:23;22.30;29.50
1329;DHT22;658;48.820;9.354;2024-01-16T20:53:24;22.30;29.60
1329;DHT22;658;48.820;9.354;2024-01-16T20:57:24;22.30;29.80
1329;DHT22;658;48.820;9.354;2024-01-16T21:01:25;22.30;29.90
1329;DHT22;658;48.820;9.354;2024-01-16T21:05:26;22.40;30.00
1329;DHT22;658;48.820;9.354;2024-01-16T21:09:27;22.40;30.00
1329;DHT22;658;48.820;9.354;2024-01-16T21:13:28;22.40;30.20
1329;DHT22;658;48.820;9.354;2024-01-16T21:17:29;22.40;30.30
1329;DHT22;658;48.820;9.354;2024-01-16T21:21:30;22.40;30.40
1329;DHT22;658;48.820;9.354;2024-01-16T21:25:30;22.50;30.20
1329;DHT22;658;48.820;9.354;2024-01-16T21:29:31;22.50;30.80
1329;DHT22;658;48.820;9.354;2024-01-16T21:33:33;22.50;30.10
1329;DHT22;658;48.820;9.354;2024-01-16T21:37:34;22.50;30.00
1329;DHT22;658;48.820;9.354;2024-01-16T21:41:38;22.40;30.00
1329;DHT22;658;48.820;9.354;2024-01-16T21:45:38;22.40;29.90
1329;DHT22;658;48.820;9.354;2024-01-16T21:49:41;22.40;29.90
1329;DHT22;658;48.820;9.354;2024-01-16T21:53:42;22.40;30.20
1329;DHT22;658;48.820;9.354;2024-01-16T21:57:43;22.30;29.70
1329;DHT22;658;48.820;9.354;2024-01-16T22:01:45;22.30;29.60
1329;DHT22;658;48.820;9.354;2024-01-16T22:05:46;22.30;29.60
1329;DHT22;658;48.820;9.354;2024-01-16T22:09:47;22.20;29.50
1329;DHT22;658;48.820;9.354;2024-01-16T22:13:47;22.20;29.60
1329;DHT22;658;48.820;9.354;2024-01-16T22:17:48;22.20;29.50
1329;DHT22;658;48.820;9.354;2024-01-16T22:21:48;22.10;29.40
1329;DHT22;658;48.820;9.354;2024-01-16T22:25:49;22.10;29.50
1329;DHT22;658;48.820;9.354;2024-01-16T22:29:52;22.10;29.50
1329;DHT22;658;48.820;9.354;2024-01-16T22:33:52;22.10;29.50
1329;DHT22;658;48.820;9.354;2024-01-16T22:37:53;22.10;29.50
1329;DHT22;658;48.820;9.354;2024-01-16T22:41:54;22.10;29.50
1329;DHT22;658;48.820;9.354;2024-01-16T22:45:54;22.10;29.50
1329;DHT22;658;48.820;9.354;2024-01-16T22:49:55;22.00;29.50
1329;DHT22;658;48.820;9.354;2024-01-16T22:53:56;22.10;29.60
1329;DHT22;658;48.820;9.354;2024-01-16T22:57:56;22.00;29.60
1329;DHT22;658;48.820;9.354;2024-01-16T23:01:57;22.00;29.60
1329;DHT22;658;48.820;9.354;2024-01-16T23:05:57;22.00;29.60
1329;DHT22;658;48.820;9.354;2024-01-16T23:10:00;22.00;29.60
1329;DHT22;658;48.820;9.354;2024-01-16T23:14:02;22.00;29.60
1329;DHT22;658;48.820;9.354;2024-01-16T23:18:03;22.00;29.60
1329;DHT22;658;48.820;9.354;2024-01-16T23:22:05;22.10;29.70
1329;DHT22;658;48.820;9.354;2024-01-16T23:26:08;22.10;29.70
1329;DHT22;658;48.820;9.354;2024-01-16T23:30:11;22.10;29.70
1329;DHT22;658;48.820;9.354;2024-01-16T23:34:12;22.10;29.70
1329;DHT22;658;48.820;9.354;2024-01-16T23:38:13;22.10;29.70
1329;DHT22;658;48.820;9.354;2024-01-16T23:42:13;22.10;29.70
1329;DHT22;658;48.820;9.354;2024-01-16T23:46:17;22.20;29.80
1329;DHT22;658;48.820;9.354;2024-01-16T23:50:20;22.20;29.80
1329;DHT22;658;48.820;9.354;2024-01-16T23:54:23;22.20;29.80
1329;DHT22;658;48.820;9.354;2024-01-16T23:58:24;22.30;29.80
